Latest Weather Observations for Gove Airport

IDD60801

Issued at 7:31 pm CST Tuesday 23 October 2018 (issued every 10 minutes, with the page automatically refreshed every 10 minutes)

About weather observations | Map of weather stations | Latest weather observations for NT | Other Formats
Station Details ID: 014508 Name: GOVE AIRPORT Lat: -12.27 Lon: 136.82 Height: 51.6 m
Data from the previous 72 hours. | See also: Recent months at Gove Airport
Date/Time
CST
Temp
°C
App
Temp
°C
Dew
Point
°C
Rel
Hum
%
Delta-T
°C
Wind Press
QNH
hPa
Press
MSL
hPa
Rain since
9am
mm
Dir  Spd
km/h
Gust
km/h
Spd
kts
Gust
kts
23/07:30pm 27.5 30.5 22.0 72 3.7 NNE 9 11 5 6 1010.3 1009.9 0.0
23/07:00pm 27.8 30.8 22.7 74 3.5 NNE 11 13 6 7 1010.0 1009.6 0.0
23/06:30pm 27.9 30.8 23.1 75 3.3 NNE 13 19 7 10 1010.0 1009.6 0.0
23/06:00pm 28.3 30.5 23.2 74 3.5 NE 17 20 9 11 1010.1 1009.7 0.0
23/05:30pm 29.3 30.3 22.2 65 4.8 NE 20 24 11 13 1009.9 1009.5 0.0
23/05:00pm 30.1 30.6 21.1 58 6.0 NE 20 28 11 15 1009.8 1009.4 0.0
23/04:30pm 30.5 30.7 20.6 55 6.6 NE 20 28 11 15 1009.5 1009.1 0.0
23/04:00pm 30.8 30.9 20.4 54 6.9 ENE 20 28 11 15 1009.2 1008.8 0.0
23/03:30pm 31.2 31.7 21.1 55 6.8 NE 20 28 11 15 1009.2 1008.8 0.0
23/03:00pm 32.5 32.6 20.4 49 8.1 NE 20 30 11 16 1009.3 1008.9 0.0
23/02:30pm 33.1 33.6 21.1 49 8.1 NE 20 28 11 15 1009.1 1008.7 0.0
23/02:00pm 32.7 33.0 20.8 49 8.0 NE 20 26 11 14 1009.3 1008.9 0.0
23/01:30pm 32.9 33.4 20.1 47 8.5 N 17 24 9 13 1009.5 1009.1 0.0
23/01:00pm 32.8 32.9 20.4 48 8.3 NNE 20 28 11 15 1010.1 1009.7 0.0
23/12:30pm 32.6 32.6 21.0 50 7.8 NNE 22 28 12 15 1010.7 1010.3 0.0
23/12:00pm 32.6 33.6 21.0 50 7.8 N 17 26 9 14 1011.2 1010.8 0.0
23/11:30am 33.4 34.3 21.5 49 8.1 N 19 28 10 15 1011.4 1011.0 0.0
23/11:00am 32.8 35.3 21.8 52 7.5 NW 11 17 6 9 1011.8 1011.4 0.0
23/10:30am 31.9 34.0 20.9 52 7.4 NNW 11 19 6 10 1012.0 1011.7 0.0
23/10:00am 31.7 34.5 21.5 54 6.9 NW 9 17 5 9 1012.0 1011.7 0.0
23/09:30am 30.2 32.6 22.3 62 5.4 N 13 19 7 10 1012.2 1011.9 0.0
23/09:00am 29.9 32.2 22.1 63 5.3 NW 13 20 7 11 1012.3 1012.0 0.0
23/08:30am 28.5 31.2 22.8 71 3.9 NW 13 17 7 9 1012.3 1012.0 0.0
23/08:00am 28.4 31.6 23.1 73 3.6 WNW 11 15 6 8 1012.3 1012.0 0.0
23/07:30am 27.4 31.9 23.6 80 2.6 NE 6 9 3 5 1012.1 1011.8 0.0
23/07:00am 26.4 32.0 23.6 84 1.9 CALM 0 0 0 0 1011.6 1011.2 0.0
23/06:30am 25.3 31.0 23.7 91 1.1 CALM 0 0 0 0 1010.9 1010.5 0.0
23/06:00am 24.9 29.2 23.3 91 1.1 WNW 6 9 3 5 1010.4 1010.0 0.0
23/05:30am 25.1 28.7 23.0 88 1.4 SW 9 11 5 6 1010.2 1009.8 0.0
23/05:00am 25.1 29.2 23.3 90 1.2 NW 7 11 4 6 1009.7 1009.3 0.0
23/04:30am 25.4 29.5 23.2 88 1.5 NNW 7 9 4 5 1009.4 1009.0 0.0
23/04:00am 24.9 28.5 23.0 89 1.3 NW 9 11 5 6 1009.2 1008.8 0.0
23/03:30am 25.4 29.0 23.0 86 1.6 N 9 11 5 6 1009.3 1008.9 0.0
23/03:00am 25.1 29.7 23.2 89 1.3 NNW 4 7 2 4 1009.1 1008.7 0.0
23/02:30am 25.5 29.1 23.1 86 1.6 N 9 13 5 7 1009.3 1008.9 0.0
23/02:00am 25.7 29.5 23.4 87 1.6 N 9 11 5 6 1009.7 1009.3 0.0
23/01:30am 25.6 29.2 23.1 86 1.7 NNW 9 11 5 6 1010.2 1009.8 0.0
23/01:00am 25.8 29.9 23.3 86 1.7 NW 7 9 4 5 1010.6 1010.2 0.0
23/12:30am 26.5 30.2 23.3 82 2.2 N 9 11 5 6 1011.0 1010.6 0.0
23/12:00am 26.9 31.1 23.4 81 2.4 N 7 11 4 6 1011.3 1010.9 0.0
 
Date/Time
CST
Temp
°C
App
Temp
°C
Dew
Point
°C
Rel
Hum
%
Delta-T
°C
Wind Press
QNH
hPa
Press
MSL
hPa
Rain since
9am
mm
Dir  Spd
km/h
Gust
km/h
Spd
kts
Gust
kts
22/11:30pm 26.8 31.2 23.4 81 2.3 N 6 9 3 5 1011.6 1011.2 0.0
22/11:00pm 26.9 30.7 23.4 81 2.4 NNE 9 11 5 6 1011.7 1011.3 0.0
22/10:30pm 26.8 30.6 23.4 81 2.3 NNE 9 11 5 6 1011.7 1011.3 0.0
22/10:00pm 26.9 30.7 23.4 81 2.4 NNE 9 13 5 7 1011.5 1011.1 0.0
22/09:30pm 27.0 31.2 23.5 81 2.4 NNE 7 11 4 6 1011.4 1011.0 0.0
22/09:00pm 27.0 30.8 23.5 81 2.4 NNE 9 13 5 7 1011.2 1010.8 0.0
22/08:30pm 27.1 31.0 23.6 81 2.4 NNE 9 11 5 6 1010.9 1010.5 0.0
22/08:00pm 27.3 31.1 23.4 79 2.7 NNE 9 11 5 6 1010.5 1010.1 0.0
22/07:30pm 27.5 31.3 23.4 78 2.8 NNE 9 11 5 6 1010.3 1009.9 0.0
22/07:00pm 27.7 31.0 23.2 76 3.1 NNE 11 15 6 8 1009.9 1009.5 0.0
22/06:30pm 28.1 31.0 23.1 74 3.4 NE 13 17 7 9 1009.5 1009.1 0.0
22/06:00pm 28.4 30.2 23.3 74 3.5 NE 19 24 10 13 1009.4 1009.0 0.0
22/05:30pm 29.4 31.1 23.1 69 4.3 NNE 19 24 10 13 1009.2 1008.8 0.0
22/05:00pm 30.1 31.8 23.1 66 4.8 NNE 19 24 10 13 1009.0 1008.6 0.0
22/04:30pm 30.9 33.1 23.2 63 5.3 NNE 17 28 9 15 1008.7 1008.3 0.0
22/04:00pm 30.7 32.5 23.6 66 4.9 NNE 20 28 11 15 1008.7 1008.3 0.0
22/03:30pm 31.2 33.0 23.6 64 5.3 NNE 20 28 11 15 1008.7 1008.3 0.0
22/03:00pm 31.2 33.0 23.6 64 5.3 NNE 20 30 11 16 1008.9 1008.5 0.0
22/02:30pm 30.8 32.4 23.3 64 5.2 N 20 28 11 15 1009.1 1008.7 0.0
22/02:00pm 31.9 33.2 22.6 58 6.4 N 20 26 11 14 1009.2 1008.8 0.0
22/01:30pm 32.2 32.7 21.1 52 7.5 N 20 32 11 17 1009.6 1009.2 0.0
22/01:00pm 32.7 33.9 22.5 55 7.0 NNE 20 30 11 16 1009.9 1009.5 0.0
22/12:30pm 33.6 33.9 20.8 47 8.6 NNE 20 28 11 15 1010.4 1010.0 0.0
22/12:00pm 34.4 34.6 20.2 43 9.5 NNE 19 26 10 14 1010.9 1010.5 0.0
22/11:30am 33.2 34.1 20.0 45 8.8 ENE 15 20 8 11 1011.5 1011.1 0.0
22/11:00am 33.0 33.6 19.5 45 8.9 NE 15 20 8 11 1011.9 1011.6 0.0
22/10:30am 32.7 34.2 20.6 49 8.1 NE 13 22 7 12 1012.4 1012.1 0.0
22/10:00am 31.6 33.5 22.0 56 6.5 ENE 15 20 8 11 1012.6 1012.3 0.0
22/09:30am 31.0 33.5 22.5 60 5.8 ENE 13 20 7 11 1012.6 1012.3 0.0
22/09:00am 30.3 33.5 23.7 68 4.6 NE 13 20 7 11 1012.7 1012.4 0.0
22/08:30am 30.3 34.0 23.2 65 4.9 ENE 9 13 5 7 1012.5 1012.2 0.0
22/08:00am 28.7 32.8 23.9 75 3.3 NNE 9 11 5 6 1012.3 1012.0 0.0
22/07:30am 27.9 32.6 24.3 81 2.5 NE 7 11 4 6 1012.1 1011.8 0.0
22/07:00am 26.3 32.0 23.8 86 1.7 CALM 0 6 0 3 1012.0 1011.7 0.0
22/06:30am 23.4 28.1 22.0 92 0.9 CALM 0 0 0 0 1011.6 1011.2 0.0
22/06:00am 23.1 27.5 21.3 90 1.2 CALM 0 0 0 0 1011.4 1011.0 0.0
22/05:30am 23.0 27.3 21.2 89 1.2 CALM 0 0 0 0 1011.1 1010.7 0.0
22/05:00am 22.9 27.3 21.4 91 1.0 CALM 0 0 0 0 1010.8 1010.4 0.0
22/04:30am 23.0 27.5 21.5 91 1.0 CALM 0 0 0 0 1010.6 1010.2 0.0
22/04:00am 23.5 28.3 22.2 92 0.9 CALM 0 0 0 0 1010.5 1010.1 0.0
22/03:30am 23.5 28.2 22.0 91 1.0 CALM 0 0 0 0 1010.3 1009.9 0.0
22/03:00am 23.5 28.3 22.2 92 0.9 CALM 0 0 0 0 1010.3 1009.9 0.0
22/02:30am 23.5 28.2 22.0 91 1.0 CALM 0 0 0 0 1010.3 1009.9 0.0
22/02:00am 23.9 28.8 22.3 91 1.1 CALM 0 0 0 0 1010.5 1010.1 0.0
22/01:30am 24.0 28.8 22.2 90 1.2 CALM 0 0 0 0 1010.7 1010.3 0.0
22/01:00am 24.4 29.6 22.8 91 1.1 CALM 0 0 0 0 1011.2 1010.8 0.0
22/12:30am 24.7 29.9 22.9 90 1.2 CALM 0 0 0 0 1011.6 1011.2 0.0
22/12:00am 25.8 30.1 23.3 86 1.7 ENE 6 7 3 4 1012.0 1011.7 0.0
 
Date/Time
CST
Temp
°C
App
Temp
°C
Dew
Point
°C
Rel
Hum
%
Delta-T
°C
Wind Press
QNH
hPa
Press
MSL
hPa
Rain since
9am
mm
Dir  Spd
km/h
Gust
km/h
Spd
kts
Gust
kts
21/11:30pm 26.0 31.5 23.4 85 1.8 CALM 0 0 0 0 1012.3 1012.0 0.0
21/11:00pm 26.2 30.3 23.3 84 2.0 ESE 7 9 4 5 1012.4 1012.1 0.0
21/10:30pm 26.5 30.6 23.3 82 2.2 E 7 9 4 5 1012.7 1012.4 0.0
21/10:00pm 26.6 30.7 23.2 81 2.3 ENE 7 9 4 5 1012.6 1012.3 0.0
21/09:30pm 26.9 30.9 23.1 80 2.6 E 7 9 4 5 1012.3 1012.0 0.0
21/09:00pm 27.0 31.1 22.9 78 2.8 ENE 6 7 3 4 1012.0 1011.7 0.0
21/08:30pm 27.1 31.0 23.0 78 2.8 NE 7 9 4 5 1011.7 1011.3 0.0
21/08:00pm 27.4 31.5 23.2 78 2.9 NE 7 9 4 5 1011.2 1010.8 0.0
21/07:30pm 27.5 31.6 23.3 78 2.9 NE 7 9 4 5 1011.0 1010.6 0.0
21/07:00pm 27.8 31.8 23.1 75 3.2 NNE 7 11 4 6 1010.9 1010.5 0.0
21/06:30pm 28.1 31.2 22.8 73 3.6 NNE 11 13 6 7 1010.6 1010.2 0.0
21/06:00pm 29.0 31.4 22.2 66 4.6 NNE 13 17 7 9 1010.4 1010.0 0.0
21/05:30pm 29.2 31.5 22.1 65 4.8 NNE 13 20 7 11 1010.1 1009.7 0.0
21/05:00pm 29.4 32.1 22.8 67 4.5 N 13 19 7 10 1010.0 1009.6 0.0
21/04:30pm 30.2 32.9 22.8 64 5.1 NNE 13 20 7 11 1010.0 1009.6 0.0
21/04:00pm 30.3 32.1 22.5 63 5.3 NNE 17 26 9 14 1010.0 1009.6 0.0
21/03:30pm 30.8 32.0 22.1 59 5.9 N 19 26 10 14 1010.2 1009.8 0.0
21/03:00pm 30.5 31.4 21.9 60 5.8 N 20 30 11 16 1010.6 1010.2 0.0
21/02:30pm 31.6 32.3 21.2 54 7.0 NNE 19 30 10 16 1010.9 1010.5 0.0
21/02:00pm 31.0 31.7 21.2 56 6.6 NNE 19 26 10 14 1011.4 1011.0 0.0
21/01:30pm 31.6 32.8 21.4 54 6.9 NNE 17 26 9 14 1011.8 1011.4 0.0
21/01:00pm 30.8 31.4 21.1 56 6.5 N 19 26 10 14 1012.1 1011.8 0.0
21/12:30pm 31.6 32.8 20.7 52 7.3 N 15 22 8 12 1012.8 1012.5 0.0
21/12:00pm 30.5 31.4 21.6 59 6.0 N 19 26 10 14 1013.2 1012.9 0.0
21/11:30am 31.3 33.0 21.7 56 6.5 NNE 15 22 8 12 1013.6 1013.3 0.0
21/11:00am 30.0 32.1 21.7 61 5.6 NNE 13 22 7 12 1014.0 1013.7 0.0
21/10:30am 30.5 31.7 21.4 58 6.1 NE 17 24 9 13 1014.3 1014.0 0.0
21/10:00am 31.1 32.4 21.6 57 6.4 NE 17 24 9 13 1014.6 1014.3 0.0
21/09:30am 30.4 31.7 22.3 62 5.5 NNE 19 28 10 15 1014.8 1014.5 0.0
21/09:00am 29.0 30.9 22.8 69 4.2 NE 17 24 9 13 1014.9 1014.6 0.0
21/08:30am 28.8 30.9 23.1 71 3.9 NNE 17 22 9 12 1014.8 1014.5 0.0
21/08:00am 28.8 31.3 22.5 68 4.3 NNE 13 17 7 9 1014.4 1014.1 0.0
21/07:30am 28.3 32.1 23.5 75 3.3 NNE 9 13 5 7 1014.1 1013.8 0.0
21/07:00am 25.6 30.9 23.1 86 1.7 CALM 0 0 0 0 1013.7 1013.4 0.0
21/06:30am 23.7 28.1 21.4 87 1.5 CALM 0 0 0 0 1013.4 1013.1 0.0
21/06:00am 23.3 28.0 21.9 92 0.9 CALM 0 0 0 0 1013.0 1012.7 0.0
21/05:30am 23.5 28.3 22.2 92 0.9 CALM 0 0 0 0 1012.5 1012.2 0.0
21/05:00am 23.8 27.9 22.3 91 1.0 NNW 4 9 2 5 1012.0 1011.7 0.0
21/04:30am 23.7 28.5 22.2 91 1.0 CALM 0 0 0 0 1011.8 1011.4 0.0
21/04:09am 23.9 28.8 22.3 91 1.1 CALM 0 0 0 0 1011.7 1011.3 0.0
21/04:00am 23.7 28.5 22.2 91 1.0 CALM 0 0 0 0 1011.6 1011.2 0.0
21/03:54am 23.7 28.6 22.4 92 0.9 CALM 0 0 0 0 1011.5 1011.1 0.0
21/03:30am 23.4 28.3 22.4 94 0.7 CALM 0 0 0 0 1011.3 1010.9 0.0
21/03:00am 23.4 28.2 22.2 93 0.8 CALM 0 0 0 0 1011.1 1010.7 0.0
21/02:30am 23.6 28.5 22.4 93 0.8 CALM 0 0 0 0 1011.2 1010.8 0.0
21/02:00am 23.7 28.5 22.2 91 1.0 CALM 0 0 0 0 1011.4 1011.0 0.0
21/01:30am 23.8 28.7 22.3 91 1.0 CALM 0 0 0 0 1011.7 1011.3 0.0
21/01:00am 24.1 27.8 22.3 90 1.2 SW 6 7 3 4 1012.0 1011.7 0.0
21/12:30am 24.4 28.0 22.3 88 1.4 SSW 7 9 4 5 1012.5 1012.2 0.0
21/12:00am 24.8 28.4 22.1 85 1.8 SW 6 9 3 5 1012.6 1012.3 0.0
 
Date/Time
CST
Temp
°C
App
Temp
°C
Dew
Point
°C
Rel
Hum
%
Delta-T
°C
Wind Press
QNH
hPa
Press
MSL
hPa
Rain since
9am
mm
Dir  Spd
km/h
Gust
km/h
Spd
kts
Gust
kts
20/11:30pm 25.1 30.3 22.9 87 1.5 CALM 0 0 0 0 1012.8 1012.5 0.0
20/11:00pm 26.4 30.8 23.5 84 2.0 NNE 6 7 3 4 1013.0 1012.7 0.0
20/10:30pm 26.6 31.0 23.4 82 2.2 ENE 6 9 3 5 1013.2 1012.9 0.0
20/10:00pm 26.6 31.0 23.4 82 2.2 NE 6 7 3 4 1013.1 1012.8 0.0
20/09:30pm 26.6 30.7 23.2 81 2.3 NE 7 9 4 5 1012.9 1012.6 0.0
20/09:00pm 26.9 31.1 23.2 80 2.5 NE 6 9 3 5 1012.7 1012.4 0.0
20/08:30pm 27.1 31.3 23.1 79 2.7 NE 6 9 3 5 1012.3 1012.0 0.0
20/08:00pm 27.2 31.3 23.3 79 2.7 NE 7 11 4 6 1011.7 1011.3 0.0

Other Formats:

Comma delimited format used in spreadsheet applications
http://www.bom.gov.au/fwo/IDD60801/IDD60801.94150.axf

JavaScript Object Notation format (JSON) in row-major order
http://www.bom.gov.au/fwo/IDD60801/IDD60801.94150.json